sensor_id;sensor_type;location;lat;lon;timestamp;temperature;humidity
24522;DHT22;12680;57.804;12.190;2022-11-20T00:01:24;1.70;99.90
24522;DHT22;12680;57.804;12.190;2022-11-20T00:03:54;1.70;99.90
24522;DHT22;12680;57.804;12.190;2022-11-20T00:06:22;1.70;99.90
24522;DHT22;12680;57.804;12.190;2022-11-20T00:08:49;1.70;99.90
24522;DHT22;12680;57.804;12.190;2022-11-20T00:11:19;1.70;99.90
24522;DHT22;12680;57.804;12.190;2022-11-20T00:13:48;1.60;99.90
24522;DHT22;12680;57.804;12.190;2022-11-20T00:16:18;1.60;99.90
24522;DHT22;12680;57.804;12.190;2022-11-20T00:18:46;1.60;99.90
24522;DHT22;12680;57.804;12.190;2022-11-20T00:21:18;1.50;99.90
24522;DHT22;12680;57.804;12.190;2022-11-20T00:23:48;1.50;99.90
24522;DHT22;12680;57.804;12.190;2022-11-20T00:26:18;1.50;99.90
24522;DHT22;12680;57.804;12.190;2022-11-20T00:28:51;1.40;99.90
24522;DHT22;12680;57.804;12.190;2022-11-20T00:31:19;1.40;99.90
24522;DHT22;12680;57.804;12.190;2022-11-20T00:33:46;1.40;99.90
24522;DHT22;12680;57.804;12.190;2022-11-20T00:36:16;1.30;99.90
24522;DHT22;12680;57.804;12.190;2022-11-20T00:38:44;1.20;99.90
24522;DHT22;12680;57.804;12.190;2022-11-20T00:41:14;1.20;99.90
24522;DHT22;12680;57.804;12.190;2022-11-20T00:43:42;1.20;99.90
24522;DHT22;12680;57.804;12.190;2022-11-20T00:46:21;1.20;99.90
24522;DHT22;12680;57.804;12.190;2022-11-20T00:48:48;1.10;99.90
24522;DHT22;12680;57.804;12.190;2022-11-20T00:51:19;1.10;99.90
24522;DHT22;12680;57.804;12.190;2022-11-20T00:53:47;1.10;99.90
24522;DHT22;12680;57.804;12.190;2022-11-20T00:56:16;1.10;99.90
24522;DHT22;12680;57.804;12.190;2022-11-20T00:58:47;1.00;99.90
24522;DHT22;12680;57.804;12.190;2022-11-20T01:01:17;1.00;99.90
24522;DHT22;12680;57.804;12.190;2022-11-20T01:03:47;0.90;99.90
24522;DHT22;12680;57.804;12.190;2022-11-20T01:06:20;0.90;99.90
24522;DHT22;12680;57.804;12.190;2022-11-20T01:08:49;1.00;99.90
24522;DHT22;12680;57.804;12.190;2022-11-20T01:11:24;1.00;99.90
24522;DHT22;12680;57.804;12.190;2022-11-20T01:13:53;1.00;99.90
24522;DHT22;12680;57.804;12.190;2022-11-20T01:16:23;1.00;99.90
24522;DHT22;12680;57.804;12.190;2022-11-20T01:18:53;1.10;99.90
24522;DHT22;12680;57.804;12.190;2022-11-20T01:21:24;1.10;99.90
24522;DHT22;12680;57.804;12.190;2022-11-20T01:23:52;1.10;99.90
24522;DHT22;12680;57.804;12.190;2022-11-20T01:26:28;1.10;99.90
24522;DHT22;12680;57.804;12.190;2022-11-20T01:28:56;1.20;99.90
24522;DHT22;12680;57.804;12.190;2022-11-20T01:31:33;1.20;99.90
24522;DHT22;12680;57.804;12.190;2022-11-20T01:34:06;1.30;99.90
24522;DHT22;12680;57.804;12.190;2022-11-20T01:36:36;1.30;99.90
24522;DHT22;12680;57.804;12.190;2022-11-20T01:39:05;1.40;99.90
24522;DHT22;12680;57.804;12.190;2022-11-20T01:41:33;1.40;99.90
24522;DHT22;12680;57.804;12.190;2022-11-20T01:44:22;1.50;99.90
24522;DHT22;12680;57.804;12.190;2022-11-20T01:47:04;1.50;99.90
24522;DHT22;12680;57.804;12.190;2022-11-20T01:49:38;1.50;99.90
24522;DHT22;12680;57.804;12.190;2022-11-20T01:54:47;1.50;99.90
24522;DHT22;12680;57.804;12.190;2022-11-20T01:57:16;1.60;99.90
24522;DHT22;12680;57.804;12.190;2022-11-20T01:59:59;1.60;99.90
24522;DHT22;12680;57.804;12.190;2022-11-20T02:02:27;1.60;99.90
24522;DHT22;12680;57.804;12.190;2022-11-20T02:04:56;1.50;99.90
24522;DHT22;12680;57.804;12.190;2022-11-20T02:07:25;1.60;99.90
24522;DHT22;12680;57.804;12.190;2022-11-20T02:09:53;1.50;99.90
24522;DHT22;12680;57.804;12.190;2022-11-20T02:12:24;1.60;99.90
24522;DHT22;12680;57.804;12.190;2022-11-20T02:15:10;1.60;99.90
24522;DHT22;12680;57.804;12.190;2022-11-20T02:17:37;1.60;99.90
24522;DHT22;12680;57.804;12.190;2022-11-20T02:20:06;1.60;99.90
24522;DHT22;12680;57.804;12.190;2022-11-20T02:22:45;1.70;99.90
24522;DHT22;12680;57.804;12.190;2022-11-20T02:25:15;1.70;99.90
24522;DHT22;12680;57.804;12.190;2022-11-20T02:27:42;1.80;99.90
24522;DHT22;12680;57.804;12.190;2022-11-20T02:30:10;1.80;99.90
24522;DHT22;12680;57.804;12.190;2022-11-20T02:32:38;1.80;99.90
24522;DHT22;12680;57.804;12.190;2022-11-20T02:35:40;1.90;99.90
24522;DHT22;12680;57.804;12.190;2022-11-20T02:37:58;1.90;99.90
24522;DHT22;12680;57.804;12.190;2022-11-20T02:40:26;1.90;99.90
24522;DHT22;12680;57.804;12.190;2022-11-20T02:42:56;1.90;99.90
24522;DHT22;12680;57.804;12.190;2022-11-20T02:45:24;2.00;99.90
24522;DHT22;12680;57.804;12.190;2022-11-20T02:47:51;1.90;99.90
24522;DHT22;12680;57.804;12.190;2022-11-20T02:50:19;1.90;99.90
24522;DHT22;12680;57.804;12.190;2022-11-20T02:52:46;1.90;99.90
24522;DHT22;12680;57.804;12.190;2022-11-20T02:55:13;1.90;99.90
24522;DHT22;12680;57.804;12.190;2022-11-20T02:57:40;1.90;99.90
24522;DHT22;12680;57.804;12.190;2022-11-20T03:00:08;1.90;99.90
24522;DHT22;12680;57.804;12.190;2022-11-20T03:02:35;1.90;99.90
24522;DHT22;12680;57.804;12.190;2022-11-20T03:05:03;1.90;99.90
24522;DHT22;12680;57.804;12.190;2022-11-20T03:07:30;1.80;99.90
24522;DHT22;12680;57.804;12.190;2022-11-20T03:09:57;1.70;99.90
24522;DHT22;12680;57.804;12.190;2022-11-20T03:12:24;1.70;99.90
24522;DHT22;12680;57.804;12.190;2022-11-20T03:14:51;1.60;99.90
24522;DHT22;12680;57.804;12.190;2022-11-20T03:17:19;1.60;99.90
24522;DHT22;12680;57.804;12.190;2022-11-20T03:19:46;1.50;99.90
24522;DHT22;12680;57.804;12.190;2022-11-20T03:22:13;1.40;99.90
24522;DHT22;12680;57.804;12.190;2022-11-20T03:24:40;1.30;99.90
24522;DHT22;12680;57.804;12.190;2022-11-20T03:27:08;1.30;99.90
24522;DHT22;12680;57.804;12.190;2022-11-20T03:29:35;1.20;99.90
24522;DHT22;12680;57.804;12.190;2022-11-20T03:32:02;1.10;99.90
24522;DHT22;12680;57.804;12.190;2022-11-20T03:34:29;1.10;99.90
24522;DHT22;12680;57.804;12.190;2022-11-20T03:36:56;1.10;99.90
24522;DHT22;12680;57.804;12.190;2022-11-20T03:39:23;1.10;99.90
24522;DHT22;12680;57.804;12.190;2022-11-20T03:41:50;1.10;99.90
24522;DHT22;12680;57.804;12.190;2022-11-20T03:44:21;1.00;99.90
24522;DHT22;12680;57.804;12.190;2022-11-20T03:46:48;1.00;99.90
24522;DHT22;12680;57.804;12.190;2022-11-20T03:49:15;1.00;99.90
24522;DHT22;12680;57.804;12.190;2022-11-20T03:51:42;1.00;99.90
24522;DHT22;12680;57.804;12.190;2022-11-20T03:54:10;1.10;99.90
24522;DHT22;12680;57.804;12.190;2022-11-20T03:56:38;1.00;99.90
24522;DHT22;12680;57.804;12.190;2022-11-20T03:59:06;1.00;99.90
24522;DHT22;12680;57.804;12.190;2022-11-20T04:01:35;1.00;99.90
24522;DHT22;12680;57.804;12.190;2022-11-20T04:04:03;1.00;99.90
24522;DHT22;12680;57.804;12.190;2022-11-20T04:06:35;1.00;99.90
24522;DHT22;12680;57.804;12.190;2022-11-20T04:09:03;1.00;99.90
24522;DHT22;12680;57.804;12.190;2022-11-20T04:11:32;1.00;99.90
24522;DHT22;12680;57.804;12.190;2022-11-20T04:14:02;1.10;99.90
24522;DHT22;12680;57.804;12.190;2022-11-20T04:16:31;1.10;99.90
24522;DHT22;12680;57.804;12.190;2022-11-20T04:19:00;1.20;99.90
24522;DHT22;12680;57.804;12.190;2022-11-20T04:21:28;1.30;99.90
24522;DHT22;12680;57.804;12.190;2022-11-20T04:23:56;1.30;99.90
24522;DHT22;12680;57.804;12.190;2022-11-20T04:26:25;1.40;99.90
24522;DHT22;12680;57.804;12.190;2022-11-20T04:28:53;1.50;99.90
24522;DHT22;12680;57.804;12.190;2022-11-20T04:31:28;1.50;99.90
24522;DHT22;12680;57.804;12.190;2022-11-20T04:33:58;1.50;99.90
24522;DHT22;12680;57.804;12.190;2022-11-20T04:36:26;1.50;99.90
24522;DHT22;12680;57.804;12.190;2022-11-20T04:39:02;1.40;99.90
24522;DHT22;12680;57.804;12.190;2022-11-20T04:41:32;1.40;99.90
24522;DHT22;12680;57.804;12.190;2022-11-20T04:44:01;1.40;99.90
24522;DHT22;12680;57.804;12.190;2022-11-20T04:46:35;1.40;99.90
24522;DHT22;12680;57.804;12.190;2022-11-20T04:49:03;1.40;99.90
24522;DHT22;12680;57.804;12.190;2022-11-20T04:51:30;1.40;99.90
24522;DHT22;12680;57.804;12.190;2022-11-20T04:53:58;1.30;99.90
24522;DHT22;12680;57.804;12.190;2022-11-20T04:56:25;1.30;99.90
24522;DHT22;12680;57.804;12.190;2022-11-20T04:58:52;1.20;99.90
24522;DHT22;12680;57.804;12.190;2022-11-20T05:01:22;1.20;99.90
24522;DHT22;12680;57.804;12.190;2022-11-20T05:03:50;1.30;99.90
24522;DHT22;12680;57.804;12.190;2022-11-20T05:06:20;1.30;99.90
24522;DHT22;12680;57.804;12.190;2022-11-20T05:08:47;1.20;99.90
24522;DHT22;12680;57.804;12.190;2022-11-20T05:11:17;1.20;99.90
24522;DHT22;12680;57.804;12.190;2022-11-20T05:13:44;1.10;99.90
24522;DHT22;12680;57.804;12.190;2022-11-20T05:16:14;1.10;99.90
24522;DHT22;12680;57.804;12.190;2022-11-20T05:18:42;1.10;99.90
24522;DHT22;12680;57.804;12.190;2022-11-20T05:21:11;1.10;99.90
24522;DHT22;12680;57.804;12.190;2022-11-20T05:23:38;1.10;99.90
24522;DHT22;12680;57.804;12.190;2022-11-20T05:26:08;1.10;99.90
24522;DHT22;12680;57.804;12.190;2022-11-20T05:28:35;1.10;99.90
24522;DHT22;12680;57.804;12.190;2022-11-20T05:31:09;1.10;99.90
24522;DHT22;12680;57.804;12.190;2022-11-20T05:33:39;1.10;99.90
24522;DHT22;12680;57.804;12.190;2022-11-20T05:36:06;1.10;99.90
24522;DHT22;12680;57.804;12.190;2022-11-20T05:38:34;1.10;99.90
24522;DHT22;12680;57.804;12.190;2022-11-20T05:43:35;1.10;99.90
24522;DHT22;12680;57.804;12.190;2022-11-20T05:46:04;1.10;99.90
24522;DHT22;12680;57.804;12.190;2022-11-20T05:48:32;1.10;99.90
24522;DHT22;12680;57.804;12.190;2022-11-20T05:51:00;1.10;99.90
24522;DHT22;12680;57.804;12.190;2022-11-20T05:53:28;1.10;99.90
24522;DHT22;12680;57.804;12.190;2022-11-20T05:56:03;1.10;99.90
24522;DHT22;12680;57.804;12.190;2022-11-20T05:58:32;1.10;99.90
24522;DHT22;12680;57.804;12.190;2022-11-20T06:01:12;1.10;99.90
24522;DHT22;12680;57.804;12.190;2022-11-20T06:03:41;1.10;99.90
24522;DHT22;12680;57.804;12.190;2022-11-20T06:06:09;1.10;99.90
24522;DHT22;12680;57.804;12.190;2022-11-20T06:08:36;1.10;99.90
24522;DHT22;12680;57.804;12.190;2022-11-20T06:11:05;1.10;99.90
24522;DHT22;12680;57.804;12.190;2022-11-20T06:13:32;1.10;99.90
24522;DHT22;12680;57.804;12.190;2022-11-20T06:16:05;1.10;99.90
24522;DHT22;12680;57.804;12.190;2022-11-20T06:18:32;1.20;99.90
24522;DHT22;12680;57.804;12.190;2022-11-20T06:21:10;1.20;99.90
24522;DHT22;12680;57.804;12.190;2022-11-20T06:23:38;1.30;99.90
24522;DHT22;12680;57.804;12.190;2022-11-20T06:26:07;1.30;99.90
24522;DHT22;12680;57.804;12.190;2022-11-20T06:28:35;1.30;99.90
24522;DHT22;12680;57.804;12.190;2022-11-20T06:31:03;1.40;99.90
24522;DHT22;12680;57.804;12.190;2022-11-20T06:33:31;1.40;99.90
24522;DHT22;12680;57.804;12.190;2022-11-20T06:35:59;1.40;99.90
24522;DHT22;12680;57.804;12.190;2022-11-20T06:38:34;1.40;99.90
24522;DHT22;12680;57.804;12.190;2022-11-20T06:41:03;1.40;99.90
24522;DHT22;12680;57.804;12.190;2022-11-20T06:43:30;1.50;99.90
24522;DHT22;12680;57.804;12.190;2022-11-20T06:45:58;1.50;99.90
24522;DHT22;12680;57.804;12.190;2022-11-20T06:48:29;1.50;99.90
24522;DHT22;12680;57.804;12.190;2022-11-20T06:50:58;1.50;99.90
24522;DHT22;12680;57.804;12.190;2022-11-20T06:53:25;1.50;99.90
24522;DHT22;12680;57.804;12.190;2022-11-20T06:55:55;1.50;99.90
24522;DHT22;12680;57.804;12.190;2022-11-20T06:58:26;1.50;99.90
24522;DHT22;12680;57.804;12.190;2022-11-20T07:00:57;1.60;99.90
24522;DHT22;12680;57.804;12.190;2022-11-20T07:03:25;1.60;99.90
24522;DHT22;12680;57.804;12.190;2022-11-20T07:05:57;1.60;99.90
24522;DHT22;12680;57.804;12.190;2022-11-20T07:08:25;1.50;99.90
24522;DHT22;12680;57.804;12.190;2022-11-20T07:10:52;1.60;99.90
24522;DHT22;12680;57.804;12.190;2022-11-20T07:13:19;1.60;99.90
24522;DHT22;12680;57.804;12.190;2022-11-20T07:15:46;1.60;99.90
24522;DHT22;12680;57.804;12.190;2022-11-20T07:18:13;1.60;99.90
24522;DHT22;12680;57.804;12.190;2022-11-20T07:20:40;1.60;99.90
24522;DHT22;12680;57.804;12.190;2022-11-20T07:23:07;1.60;99.90
24522;DHT22;12680;57.804;12.190;2022-11-20T07:25:34;1.60;99.90
24522;DHT22;12680;57.804;12.190;2022-11-20T07:28:03;1.60;99.90
24522;DHT22;12680;57.804;12.190;2022-11-20T07:30:30;1.60;99.90
24522;DHT22;12680;57.804;12.190;2022-11-20T07:32:58;1.60;99.90
24522;DHT22;12680;57.804;12.190;2022-11-20T07:35:25;1.60;99.90
24522;DHT22;12680;57.804;12.190;2022-11-20T07:37:52;1.60;99.90
24522;DHT22;12680;57.804;12.190;2022-11-20T07:40:20;1.60;99.90
24522;DHT22;12680;57.804;12.190;2022-11-20T07:42:51;1.60;99.90
24522;DHT22;12680;57.804;12.190;2022-11-20T07:45:19;1.70;99.90
24522;DHT22;12680;57.804;12.190;2022-11-20T07:47:47;1.70;99.90
24522;DHT22;12680;57.804;12.190;2022-11-20T07:50:14;1.70;99.90
24522;DHT22;12680;57.804;12.190;2022-11-20T07:52:41;1.70;99.90
24522;DHT22;12680;57.804;12.190;2022-11-20T07:55:09;1.70;99.90
24522;DHT22;12680;57.804;12.190;2022-11-20T07:57:37;1.70;99.90
24522;DHT22;12680;57.804;12.190;2022-11-20T08:00:05;1.80;99.90
24522;DHT22;12680;57.804;12.190;2022-11-20T08:02:33;1.80;99.90
24522;DHT22;12680;57.804;12.190;2022-11-20T08:05:00;1.80;99.90
24522;DHT22;12680;57.804;12.190;2022-11-20T08:07:27;1.80;99.90
24522;DHT22;12680;57.804;12.190;2022-11-20T08:09:55;1.80;99.90
24522;DHT22;12680;57.804;12.190;2022-11-20T08:12:22;1.80;99.90
24522;DHT22;12680;57.804;12.190;2022-11-20T08:15:08;1.80;99.90
24522;DHT22;12680;57.804;12.190;2022-11-20T08:17:39;1.80;99.90
24522;DHT22;12680;57.804;12.190;2022-11-20T08:20:06;1.80;99.90
24522;DHT22;12680;57.804;12.190;2022-11-20T08:22:33;1.80;99.90
24522;DHT22;12680;57.804;12.190;2022-11-20T08:25:01;1.90;99.90
24522;DHT22;12680;57.804;12.190;2022-11-20T08:27:28;1.90;99.90
24522;DHT22;12680;57.804;12.190;2022-11-20T08:29:56;2.00;99.90
24522;DHT22;12680;57.804;12.190;2022-11-20T08:32:23;2.00;99.90
24522;DHT22;12680;57.804;12.190;2022-11-20T08:34:50;2.10;99.90
24522;DHT22;12680;57.804;12.190;2022-11-20T08:37:17;2.10;99.90
24522;DHT22;12680;57.804;12.190;2022-11-20T08:39:44;2.10;99.90
24522;DHT22;12680;57.804;12.190;2022-11-20T08:42:11;2.10;99.90
24522;DHT22;12680;57.804;12.190;2022-11-20T08:44:38;2.20;99.90
24522;DHT22;12680;57.804;12.190;2022-11-20T08:47:06;2.20;99.90
24522;DHT22;12680;57.804;12.190;2022-11-20T08:49:33;2.30;99.90
24522;DHT22;12680;57.804;12.190;2022-11-20T08:52:00;2.30;99.90
24522;DHT22;12680;57.804;12.190;2022-11-20T08:54:27;2.30;99.90
24522;DHT22;12680;57.804;12.190;2022-11-20T08:56:54;2.30;99.90
24522;DHT22;12680;57.804;12.190;2022-11-20T08:59:22;2.30;99.90
24522;DHT22;12680;57.804;12.190;2022-11-20T09:02:09;2.30;99.90
24522;DHT22;12680;57.804;12.190;2022-11-20T09:04:36;2.40;99.90
24522;DHT22;12680;57.804;12.190;2022-11-20T09:07:04;2.40;99.90
24522;DHT22;12680;57.804;12.190;2022-11-20T09:09:31;2.40;99.90
24522;DHT22;12680;57.804;12.190;2022-11-20T09:11:59;2.50;99.90
24522;DHT22;12680;57.804;12.190;2022-11-20T09:14:26;2.50;99.90
24522;DHT22;12680;57.804;12.190;2022-11-20T09:16:56;2.50;99.90
24522;DHT22;12680;57.804;12.190;2022-11-20T09:19:24;2.60;99.90
24522;DHT22;12680;57.804;12.190;2022-11-20T09:22:02;2.70;99.90
24522;DHT22;12680;57.804;12.190;2022-11-20T09:24:29;2.70;99.90
24522;DHT22;12680;57.804;12.190;2022-11-20T09:26:56;2.70;99.90
24522;DHT22;12680;57.804;12.190;2022-11-20T09:29:24;2.70;99.90
24522;DHT22;12680;57.804;12.190;2022-11-20T09:31:51;2.70;99.90
24522;DHT22;12680;57.804;12.190;2022-11-20T09:34:18;2.70;99.90
24522;DHT22;12680;57.804;12.190;2022-11-20T09:36:45;2.80;99.90
24522;DHT22;12680;57.804;12.190;2022-11-20T09:39:12;2.80;99.90
24522;DHT22;12680;57.804;12.190;2022-11-20T09:47:08;2.90;99.90
24522;DHT22;12680;57.804;12.190;2022-11-20T09:53:11;2.90;99.90
24522;DHT22;12680;57.804;12.190;2022-11-20T09:55:39;3.00;99.90
24522;DHT22;12680;57.804;12.190;2022-11-20T09:58:19;3.00;99.90
24522;DHT22;12680;57.804;12.190;2022-11-20T10:00:50;3.00;99.90
24522;DHT22;12680;57.804;12.190;2022-11-20T10:03:37;2.90;99.90
24522;DHT22;12680;57.804;12.190;2022-11-20T10:06:11;2.80;99.90
24522;DHT22;12680;57.804;12.190;2022-11-20T10:08:44;2.80;99.90
24522;DHT22;12680;57.804;12.190;2022-11-20T10:22:46;2.80;99.90
24522;DHT22;12680;57.804;12.190;2022-11-20T10:25:19;2.80;99.90
24522;DHT22;12680;57.804;12.190;2022-11-20T10:30:20;2.80;99.90
24522;DHT22;12680;57.804;12.190;2022-11-20T10:33:17;2.70;99.90
24522;DHT22;12680;57.804;12.190;2022-11-20T10:38:44;2.90;99.90
24522;DHT22;12680;57.804;12.190;2022-11-20T10:41:27;2.90;99.90
24522;DHT22;12680;57.804;12.190;2022-11-20T10:44:01;3.00;99.90
24522;DHT22;12680;57.804;12.190;2022-11-20T10:46:38;3.10;99.90
24522;DHT22;12680;57.804;12.190;2022-11-20T10:49:18;3.20;99.90
24522;DHT22;12680;57.804;12.190;2022-11-20T10:51:53;3.30;99.90
24522;DHT22;12680;57.804;12.190;2022-11-20T10:54:38;3.40;99.90
24522;DHT22;12680;57.804;12.190;2022-11-20T11:00:16;3.40;99.90
24522;DHT22;12680;57.804;12.190;2022-11-20T11:05:40;3.40;99.90
24522;DHT22;12680;57.804;12.190;2022-11-20T11:08:15;3.40;99.90
24522;DHT22;12680;57.804;12.190;2022-11-20T11:10:55;3.40;99.90
24522;DHT22;12680;57.804;12.190;2022-11-20T11:13:26;3.40;99.90
24522;DHT22;12680;57.804;12.190;2022-11-20T11:15:54;3.40;99.90
24522;DHT22;12680;57.804;12.190;2022-11-20T11:18:27;3.40;99.90
24522;DHT22;12680;57.804;12.190;2022-11-20T11:20:55;3.40;99.90
24522;DHT22;12680;57.804;12.190;2022-11-20T11:23:41;3.50;99.90
24522;DHT22;12680;57.804;12.190;2022-11-20T11:26:22;3.60;99.90
24522;DHT22;12680;57.804;12.190;2022-11-20T11:28:56;3.80;99.90
24522;DHT22;12680;57.804;12.190;2022-11-20T11:31:29;3.80;99.90
24522;DHT22;12680;57.804;12.190;2022-11-20T11:34:13;3.70;99.90
24522;DHT22;12680;57.804;12.190;2022-11-20T11:36:41;3.60;99.90
24522;DHT22;12680;57.804;12.190;2022-11-20T11:39:15;3.50;99.90
24522;DHT22;12680;57.804;12.190;2022-11-20T11:41:43;3.50;99.90
24522;DHT22;12680;57.804;12.190;2022-11-20T11:44:23;3.40;99.90
24522;DHT22;12680;57.804;12.190;2022-11-20T11:47:24;3.40;99.90
24522;DHT22;12680;57.804;12.190;2022-11-20T11:53:16;3.50;99.90
24522;DHT22;12680;57.804;12.190;2022-11-20T12:03:50;3.60;99.90
24522;DHT22;12680;57.804;12.190;2022-11-20T12:06:20;3.60;99.90
24522;DHT22;12680;57.804;12.190;2022-11-20T12:09:03;3.60;99.90
24522;DHT22;12680;57.804;12.190;2022-11-20T12:11:39;3.60;99.90
24522;DHT22;12680;57.804;12.190;2022-11-20T12:17:01;3.30;99.90
24522;DHT22;12680;57.804;12.190;2022-11-20T12:19:35;3.30;99.90
24522;DHT22;12680;57.804;12.190;2022-11-20T12:25:09;3.30;99.90
24522;DHT22;12680;57.804;12.190;2022-11-20T12:30:25;4.70;99.90
24522;DHT22;12680;57.804;12.190;2022-11-20T12:33:08;3.30;99.90
24522;DHT22;12680;57.804;12.190;2022-11-20T12:35:42;3.30;99.90
24522;DHT22;12680;57.804;12.190;2022-11-20T12:38:27;3.40;99.90
24522;DHT22;12680;57.804;12.190;2022-11-20T12:43:44;3.40;99.90
24522;DHT22;12680;57.804;12.190;2022-11-20T12:55:12;3.50;99.90
24522;DHT22;12680;57.804;12.190;2022-11-20T13:00:19;3.40;99.90
24522;DHT22;12680;57.804;12.190;2022-11-20T13:08:38;3.40;99.90
24522;DHT22;12680;57.804;12.190;2022-11-20T13:16:44;3.40;99.90
24522;DHT22;12680;57.804;12.190;2022-11-20T13:19:15;3.40;99.90
24522;DHT22;12680;57.804;12.190;2022-11-20T13:21:45;3.40;99.90
24522;DHT22;12680;57.804;12.190;2022-11-20T13:26:47;3.30;99.90
24522;DHT22;12680;57.804;12.190;2022-11-20T13:29:18;3.30;99.90
24522;DHT22;12680;57.804;12.190;2022-11-20T13:31:47;3.30;99.90
24522;DHT22;12680;57.804;12.190;2022-11-20T13:34:26;3.20;99.90
24522;DHT22;12680;57.804;12.190;2022-11-20T13:36:56;3.10;99.90
24522;DHT22;12680;57.804;12.190;2022-11-20T13:39:29;3.10;99.90
24522;DHT22;12680;57.804;12.190;2022-11-20T13:41:59;3.10;99.90
24522;DHT22;12680;57.804;12.190;2022-11-20T13:46:56;3.00;99.90
24522;DHT22;12680;57.804;12.190;2022-11-20T13:49:28;3.00;99.90
24522;DHT22;12680;57.804;12.190;2022-11-20T13:54:54;2.90;99.90
24522;DHT22;12680;57.804;12.190;2022-11-20T14:00:28;2.90;99.90
24522;DHT22;12680;57.804;12.190;2022-11-20T14:05:26;2.90;99.90
24522;DHT22;12680;57.804;12.190;2022-11-20T14:07:54;2.80;99.90
24522;DHT22;12680;57.804;12.190;2022-11-20T14:10:25;2.80;99.90
24522;DHT22;12680;57.804;12.190;2022-11-20T14:12:57;2.80;99.90
24522;DHT22;12680;57.804;12.190;2022-11-20T14:15:34;2.80;99.90
24522;DHT22;12680;57.804;12.190;2022-11-20T14:18:33;2.80;99.90
24522;DHT22;12680;57.804;12.190;2022-11-20T14:21:01;2.80;99.90
24522;DHT22;12680;57.804;12.190;2022-11-20T14:23:30;2.80;99.90
24522;DHT22;12680;57.804;12.190;2022-11-20T14:25:57;2.80;99.90
24522;DHT22;12680;57.804;12.190;2022-11-20T14:28:31;2.90;99.90
24522;DHT22;12680;57.804;12.190;2022-11-20T14:30:58;2.80;99.90
24522;DHT22;12680;57.804;12.190;2022-11-20T14:33:27;2.80;99.90
24522;DHT22;12680;57.804;12.190;2022-11-20T14:35:56;2.80;99.90
24522;DHT22;12680;57.804;12.190;2022-11-20T14:38:27;2.70;99.90
24522;DHT22;12680;57.804;12.190;2022-11-20T14:41:06;2.70;99.90
24522;DHT22;12680;57.804;12.190;2022-11-20T14:43:33;2.70;99.90
24522;DHT22;12680;57.804;12.190;2022-11-20T14:46:08;2.70;99.90
24522;DHT22;12680;57.804;12.190;2022-11-20T14:48:47;2.70;99.90
24522;DHT22;12680;57.804;12.190;2022-11-20T14:51:44;2.70;99.90
24522;DHT22;12680;57.804;12.190;2022-11-20T14:54:19;2.70;99.90
24522;DHT22;12680;57.804;12.190;2022-11-20T14:59:31;2.80;99.90
24522;DHT22;12680;57.804;12.190;2022-11-20T15:02:05;2.80;99.90
24522;DHT22;12680;57.804;12.190;2022-11-20T15:04:32;2.90;99.90
24522;DHT22;12680;57.804;12.190;2022-11-20T15:07:06;2.90;99.90
24522;DHT22;12680;57.804;12.190;2022-11-20T15:09:33;2.90;99.90
24522;DHT22;12680;57.804;12.190;2022-11-20T15:12:02;2.80;99.90
24522;DHT22;12680;57.804;12.190;2022-11-20T15:14:36;2.70;99.90
24522;DHT22;12680;57.804;12.190;2022-11-20T15:17:03;2.70;99.90
24522;DHT22;12680;57.804;12.190;2022-11-20T15:19:31;2.70;99.90
24522;DHT22;12680;57.804;12.190;2022-11-20T15:21:58;2.60;99.90
24522;DHT22;12680;57.804;12.190;2022-11-20T15:24:26;2.60;99.90
24522;DHT22;12680;57.804;12.190;2022-11-20T15:26:53;2.60;99.90
24522;DHT22;12680;57.804;12.190;2022-11-20T15:29:22;2.60;99.90
24522;DHT22;12680;57.804;12.190;2022-11-20T15:31:50;2.50;99.90
24522;DHT22;12680;57.804;12.190;2022-11-20T15:34:18;2.50;99.90
24522;DHT22;12680;57.804;12.190;2022-11-20T15:36:45;2.50;99.90
24522;DHT22;12680;57.804;12.190;2022-11-20T15:39:12;2.60;99.90
24522;DHT22;12680;57.804;12.190;2022-11-20T15:41:39;2.50;99.90
24522;DHT22;12680;57.804;12.190;2022-11-20T15:44:06;2.50;99.90
24522;DHT22;12680;57.804;12.190;2022-11-20T15:46:37;2.50;99.90
24522;DHT22;12680;57.804;12.190;2022-11-20T15:49:12;2.50;99.90
24522;DHT22;12680;57.804;12.190;2022-11-20T15:51:44;2.50;99.90
24522;DHT22;12680;57.804;12.190;2022-11-20T15:54:22;2.50;99.90
24522;DHT22;12680;57.804;12.190;2022-11-20T15:56:53;2.50;99.90
24522;DHT22;12680;57.804;12.190;2022-11-20T15:59:20;2.50;99.90
24522;DHT22;12680;57.804;12.190;2022-11-20T16:01:49;2.50;99.90
24522;DHT22;12680;57.804;12.190;2022-11-20T16:04:17;2.50;99.90
24522;DHT22;12680;57.804;12.190;2022-11-20T16:06:45;2.40;99.90
24522;DHT22;12680;57.804;12.190;2022-11-20T16:09:12;2.40;99.90
24522;DHT22;12680;57.804;12.190;2022-11-20T16:11:39;2.50;99.90
24522;DHT22;12680;57.804;12.190;2022-11-20T16:14:10;2.50;99.90
24522;DHT22;12680;57.804;12.190;2022-11-20T16:16:55;2.50;99.90
24522;DHT22;12680;57.804;12.190;2022-11-20T16:19:23;2.50;99.90
24522;DHT22;12680;57.804;12.190;2022-11-20T16:21:50;2.40;99.90
24522;DHT22;12680;57.804;12.190;2022-11-20T16:24:18;2.40;99.90
24522;DHT22;12680;57.804;12.190;2022-11-20T16:26:45;2.40;99.90
24522;DHT22;12680;57.804;12.190;2022-11-20T16:29:13;2.40;99.90
24522;DHT22;12680;57.804;12.190;2022-11-20T16:31:40;2.30;99.90
24522;DHT22;12680;57.804;12.190;2022-11-20T16:34:08;2.30;99.90
24522;DHT22;12680;57.804;12.190;2022-11-20T16:36:42;2.30;99.90
24522;DHT22;12680;57.804;12.190;2022-11-20T16:39:11;2.30;99.90
24522;DHT22;12680;57.804;12.190;2022-11-20T16:41:38;2.30;99.90
24522;DHT22;12680;57.804;12.190;2022-11-20T16:44:10;2.30;99.90
24522;DHT22;12680;57.804;12.190;2022-11-20T16:46:37;2.30;99.90
24522;DHT22;12680;57.804;12.190;2022-11-20T16:49:11;2.20;99.90
24522;DHT22;12680;57.804;12.190;2022-11-20T16:51:39;2.20;99.90
24522;DHT22;12680;57.804;12.190;2022-11-20T16:54:08;2.20;99.90
24522;DHT22;12680;57.804;12.190;2022-11-20T16:56:47;2.20;99.90
24522;DHT22;12680;57.804;12.190;2022-11-20T16:59:19;2.30;99.90
24522;DHT22;12680;57.804;12.190;2022-11-20T17:01:47;2.30;99.90
24522;DHT22;12680;57.804;12.190;2022-11-20T17:04:14;2.30;99.90
24522;DHT22;12680;57.804;12.190;2022-11-20T17:06:42;2.20;99.90
24522;DHT22;12680;57.804;12.190;2022-11-20T17:09:10;2.20;99.90
24522;DHT22;12680;57.804;12.190;2022-11-20T17:11:38;2.20;99.90
24522;DHT22;12680;57.804;12.190;2022-11-20T17:14:06;2.10;99.90
24522;DHT22;12680;57.804;12.190;2022-11-20T17:16:35;2.10;99.90
24522;DHT22;12680;57.804;12.190;2022-11-20T17:19:03;2.10;99.90
24522;DHT22;12680;57.804;12.190;2022-11-20T17:21:32;2.10;99.90
24522;DHT22;12680;57.804;12.190;2022-11-20T17:24:04;2.00;99.90
24522;DHT22;12680;57.804;12.190;2022-11-20T17:26:32;2.00;99.90
24522;DHT22;12680;57.804;12.190;2022-11-20T17:29:01;2.00;99.90